Illiopolis, Illinois
Current Conditions -  °F | °C
As of 8:54 AM on Thursday 30 Oct 2014 (Local Time) from KDEC Reporting Station
Clear Clear  
Wind Chill:   Ceiling: Unl
Heat Index:   Visibility: 10mi
Dew Point:   Wind: 6mph
Humidity: 79%   Direction: 160°SSE
Pressure: 30.16"   Gusts: NA
Location:  39.85°N, 89.24°W
Report Text: KDEC 301354Z 16005KT 10SM CLR 06/02 A3016 RMK AO2 SLP217 T00560022
Loading
Personal Weather Stations






























Interactive Weather Map
Tropical Storm Tracking
New forecast layout! Learn more

10-Day Weather Forecast

Advertisements
Track Severe Weather on mobile